Flight Track Log - Related Links

Times and Time Zones

All times are in EST time to prevent confusion due to time zone crossing. See the VRT51 flight status page for this flight to view local times or setup timezone preferences in your user account.

Time Position Orientation Groundspeed Altitude Reporting Facility
EST Latitude Longitude Course Direction KTS MPH feet Rate Location/Type
Sun 08:12:35 AM 36.1000 -86.6833 192° South 157 181 1,100  Level Nashville TRACON
Sun 08:13:18 AM 36.0736 -86.6900 192° South 165 190 3,000 2,447 Climbing Memphis Center
Sun 08:14:18 AM 36.0222 -86.6661 159° South 200 230 5,300 2,380 Climbing Memphis Center
Sun 08:15:19 AM 35.9594 -86.6222 150° Southeast 248 285 7,800 2,803 Climbing Memphis Center
Sun 08:16:20 AM 35.8886 -86.5761 152° Southeast 278 320 11,000 3,124 Climbing Memphis Center
Sun 08:17:20 AM 35.8050 -86.5403 161° South 305 351 14,100 3,074 Climbing Memphis Center
Sun 08:18:21 AM 35.7097 -86.4983 160° South 348 400 17,200 2,902 Climbing Memphis Center
Sun 08:19:22 AM 35.6086 -86.4522 160° South 375 432 20,000 2,705 Climbing Memphis Center
Sun 08:20:23 AM 35.5036 -86.4061 160° South 392 451 22,700 1,537 Climbing Memphis Center
Sun 08:21:23 AM 35.3939 -86.3572 160° South 407 468 23,100 643 Climbing Memphis Center
Sun 08:22:15 AM 35.3028 -86.3189 161° South 406 467 23,900 1,179 Climbing Atlanta Center
Sun 08:23:15 AM 35.1933 -86.2678 159° South 400 460 25,300 1,250 Climbing Atlanta Center
Sun 08:24:15 AM 35.1083 -86.2297 160° South 382 440 26,400 1,050 Climbing Atlanta Center
Sun 08:25:15 AM 35.0111 -86.1892 161° South 376 433 27,400 850 Climbing Atlanta Center
Sun 08:26:15 AM 34.9053 -86.1433 160° South 371 427 28,100 800 Climbing Atlanta Center
Sun 08:27:15 AM 34.8206 -86.1058 160° South 365 420 29,000 650 Climbing Atlanta Center
Sun 08:28:15 AM 34.7272 -86.0631 159° South 365 420 29,400 450 Climbing Atlanta Center
Sun 08:29:15 AM 34.6194 -86.0178 161° South 370 426 29,900 500 Climbing Atlanta Center
Sun 08:30:15 AM 34.5200 -85.9750 160° South 370 426 30,400 550 Climbing Atlanta Center
Sun 08:31:15 AM 34.4058 -85.9269 161° South 399 459 31,000 850 Climbing Atlanta Center
Sun 08:32:15 AM 34.2897 -85.8792 161° South 422 486 32,100 1,450 Climbing Atlanta Center
Sun 08:33:15 AM 34.1717 -85.8289 161° South 443 510 33,900 1,800 Climbing Atlanta Center
Sun 08:34:15 AM 34.0636 -85.7867 162° South 433 498 35,700 1,650 Climbing Atlanta Center
Sun 08:35:15 AM 33.9494 -85.7392 161° South 428 493 37,200 1,250 Climbing Atlanta Center
Sun 08:36:15 AM 33.8353 -85.6944 162° South 428 493 38,200 1,000 Climbing Atlanta Center
Sun 08:37:15 AM 33.7211 -85.6472 161° South 428 493 39,200 950 Climbing Atlanta Center
Sun 08:38:15 AM 33.6092 -85.6003 161° South 423 487 40,100 900 Climbing Atlanta Center
Sun 08:39:15 AM 33.4947 -85.5533 161° South 423 487 41,000 450 Climbing Atlanta Center
Sun 08:40:15 AM 33.3847 -85.5092 161° South 423 487 41,000  Level Atlanta Center
Sun 08:41:15 AM 33.2622 -85.4600 161° South 438 504 41,000  Level Atlanta Center
Sun 08:42:15 AM 33.1436 -85.4108 161° South 450 518 41,000  Level Atlanta Center
Sun 08:43:15 AM 33.0294 -85.3544 158° South 471 542 41,000  Level Atlanta Center
Sun 08:44:15 AM 32.9089 -85.3081 162° South 471 542 41,000  Level Atlanta Center
Sun 08:45:15 AM 32.7864 -85.2569 161° South 465 535 41,000  Level Atlanta Center
Sun 08:46:15 AM 32.6617 -85.2033 160° South 465 535 41,000  Level Atlanta Center
Sun 08:47:15 AM 32.5411 -85.1575 162° South 466 536 41,000  Level Atlanta Center
Sun 08:48:15 AM 32.4161 -85.1067 161° South 461 531 41,000  Level Atlanta Center
Sun 08:50:12 AM 32.1656 -85.0081 162° South 484 557 41,000  Level Jacksonville Center
Sun 08:51:12 AM 32.0472 -84.9611 161° South 471 542 41,000  Level Jacksonville Center
Sun 08:52:12 AM 31.9250 -84.9119 161° South 466 536 41,000  Level Jacksonville Center
Sun 08:53:12 AM 31.8006 -84.8653 162° South 461 531 41,000  Level Jacksonville Center
Sun 08:54:12 AM 31.6758 -84.8164 162° South 466 536 41,000  Level Jacksonville Center
Sun 08:55:12 AM 31.5536 -84.7650 160° South 466 536 41,000  Level Jacksonville Center
Sun 08:56:12 AM 31.4333 -84.6969 154° Southeast 466 536 41,000  Level Jacksonville Center
Sun 08:57:12 AM 31.3281 -84.6144 146° Southeast 488 562 41,000  Level Jacksonville Center
Sun 08:58:12 AM 31.2103 -84.5272 148° Southeast 504 580 41,000  Level Jacksonville Center
Sun 08:59:12 AM 31.0922 -84.4428 149° Southeast 504 580 41,000  Level Jacksonville Center
Sun 09:00:12 AM 30.9722 -84.3583 149° Southeast 504 580 41,000  Level Jacksonville Center
Sun 09:01:12 AM 30.8519 -84.2719 148° Southeast 504 580 41,000  Level Jacksonville Center
Sun 09:02:12 AM 30.7319 -84.1831 148° Southeast 504 580 41,000  Level Jacksonville Center
Sun 09:03:12 AM 30.6117 -84.0994 149° Southeast 504 580 41,000  Level Jacksonville Center
Sun 09:04:12 AM 30.4975 -84.0111 146° Southeast 504 580 41,000  Level Jacksonville Center
Sun 09:05:12 AM 30.3750 -83.9278 150° Southeast 504 580 41,000  Level Jacksonville Center
Sun 09:06:12 AM 30.2567 -83.8450 149° Southeast 504 580 41,000  Level Jacksonville Center
Sun 09:07:12 AM 30.1361 -83.7597 149° Southeast 504 580 41,000  Level Jacksonville Center
Sun 09:08:12 AM 30.0156 -83.6722 148° Southeast 509 586 41,000  Level Jacksonville Center
Sun 09:09:12 AM 29.8931 -83.5875 149° Southeast 509 586 41,000  Level Jacksonville Center
Sun 09:10:12 AM 29.7703 -83.5050 150° Southeast 509 586 41,000  Level Jacksonville Center
Sun 09:11:12 AM 29.6517 -83.4208 148° Southeast 509 586 41,000 -550 Level Jacksonville Center
Sun 09:12:12 AM 29.5289 -83.3389 150° Southeast 509 586 39,900 -1,000 Descending Jacksonville Center
Sun 09:13:12 AM 29.3975 -83.2453 148° Southeast 509 586 39,000 -450 Descending Jacksonville Center
Sun 09:14:12 AM 29.2831 -83.1664 149° Southeast 499 574 39,000  Level Jacksonville Center
Sun 09:15:12 AM 29.1642 -83.0806 148° Southeast 494 568 39,000  Level Jacksonville Center
Sun 09:16:12 AM 29.0453 -82.9994 149° Southeast 494 568 39,000  Level Jacksonville Center
Sun 09:17:12 AM 28.9264 -82.9164 149° Southeast 494 568 39,000  Level Jacksonville Center
Sun 09:18:12 AM 28.8072 -82.8381 150° Southeast 494 568 39,000  Level Jacksonville Center
Sun 09:19:12 AM 28.6903 -82.7553 148° Southeast 494 568 39,000  Level Jacksonville Center
Sun 09:20:12 AM 28.5858 -82.6822 148° Southeast 493 567 39,000  Level Jacksonville Center
Sun 09:21:12 AM 28.4689 -82.6022 149° Southeast 493 567 39,000 -50 Level Jacksonville Center
Sun 09:22:12 AM 28.3497 -82.5222 149° Southeast 493 567 38,900 -1,239 Descending Jacksonville Center
Sun 09:23:47 AM 28.1606 -82.3972 150° Southeast 493 567 35,800 -1,510 Descending Miami Center
Sun 09:24:47 AM 28.0425 -82.3208 150° Southeast 493 567 35,000 -400 Descending Miami Center
Sun 09:25:47 AM 27.9172 -82.2681 160° South 487 560 35,000  Level Miami Center
Sun 09:26:47 AM 27.7975 -82.2294 164° South 474 545 35,000 -400 Level Miami Center
Sun 09:27:47 AM 27.6556 -82.1781 162° South 468 539 34,200 -1,600 Descending Miami Center
Sun 09:28:47 AM 27.5278 -82.1347 163° South 474 545 31,800 -2,400 Descending Miami Center
Sun 09:29:47 AM 27.4019 -82.0917 163° South 474 545 29,400 -2,350 Descending Miami Center
Sun 09:30:47 AM 27.2867 -82.0514 163° South 479 551 27,100 -2,250 Descending Miami Center
Sun 09:31:47 AM 27.1503 -82.0078 164° South 470 541 24,900 -1,650 Descending Miami Center
Sun 09:32:47 AM 27.0356 -81.9517 156° South 464 534 23,800 -1,300 Descending Miami Center
Sun 09:33:47 AM 26.9358 -81.8797 147° Southeast 452 520 22,300 -1,500 Descending Miami Center
Sun 09:34:47 AM 26.8342 -81.8008 145° Southeast 437 503 20,800 -1,500 Descending Miami Center
Sun 09:35:47 AM 26.7364 -81.7292 147° Southeast 437 503 19,300 -1,000 Descending Miami Center
Sun 09:36:47 AM 26.7006 -81.6069 108° East 396 456 18,800 -650 Descending Miami Center
Sun 09:37:47 AM 26.7233 -81.4822 78° East 379 436 18,000 -500 Descending Miami Center
Sun 09:38:47 AM 26.7522 -81.3625 75° East 387 445 17,800 -1,050 Descending Miami Center
Sun 09:39:47 AM 26.7786 -81.2494 75° East 375 432 15,900 -2,000 Descending Miami Center
Sun 09:40:47 AM 26.8047 -81.1436 75° East 375 432 13,800 -2,050 Descending Miami Center
Sun 09:41:47 AM 26.8231 -81.0186 81° East 375 432 11,800 -1,600 Descending Miami Center
Sun 09:42:47 AM 26.8300 -80.9186 86° East 346 398 10,600 -900 Descending Miami Center
Sun 09:43:47 AM 26.8322 -80.8419 88° East 293 337 10,000 -300 Descending Miami Center
Sun 09:44:47 AM 26.8050 -80.7644 111° Southeast 264 304 10,000 -650 Level Miami Center
Sun 09:45:47 AM 26.7719 -80.6772 113° Southeast 264 304 8,700 -1,700 Descending Miami Center
Sun 09:46:47 AM 26.7464 -80.6111 113° Southeast 265 305 6,600 -2,350 Descending Miami Center
Sun 09:47:47 AM 26.7169 -80.5381 114° Southeast 245 282 4,000 -1,800 Descending Miami Center
Sun 09:48:47 AM 26.7017 -80.4794 106° East 224 258 3,000 -500 Descending Miami Center
Sun 09:49:47 AM 26.6908 -80.4142 101° East 202 232 3,000  Level Miami Center
Sun 09:50:47 AM 26.6925 -80.3514 88° East 202 232 3,000  Level Miami Center
Sun 09:52:00 AM 26.6868 -80.1929 119° Southeast  Level Estimated
Sun 09:59:00 AM 26.6832 -80.0956 50° Northeast  Level Estimated
Sun 10:00:00 AM 26.6832 -80.0956 50° Northeast  Level Estimated
Sun 10:01:00 AM 26.6832 -80.0956 50° Northeast  Level Estimated
Sun 10:02:00 AM 26.6832 -80.0956 50° Northeast  Level Estimated
Sun 10:03:00 AM 26.6832 -80.0956 50° Northeast  Level Estimated
Sun 10:04:00 AM 26.6832 -80.0956 50° Northeast  Level Estimated

Login

Don't have an account? Register now (free) for customized features, flight alerts, and more!